sensor_id;sensor_type;location;lat;lon;timestamp;temperature;humidity
16995;DHT22;8614;48.522;9.206;2023-04-06T02:01:23;0.60;99.90
16995;DHT22;8614;48.522;9.206;2023-04-06T02:03:55;0.60;99.90
16995;DHT22;8614;48.522;9.206;2023-04-06T02:06:22;0.60;99.90
16995;DHT22;8614;48.522;9.206;2023-04-06T02:08:50;0.60;99.90
16995;DHT22;8614;48.522;9.206;2023-04-06T02:11:17;0.60;99.90
16995;DHT22;8614;48.522;9.206;2023-04-06T02:13:47;0.60;99.90
16995;DHT22;8614;48.522;9.206;2023-04-06T02:16:15;0.60;99.90
16995;DHT22;8614;48.522;9.206;2023-04-06T02:18:45;0.60;99.90
16995;DHT22;8614;48.522;9.206;2023-04-06T02:21:12;0.50;99.90
16995;DHT22;8614;48.522;9.206;2023-04-06T02:23:39;0.50;99.90
16995;DHT22;8614;48.522;9.206;2023-04-06T02:26:06;0.50;99.90
16995;DHT22;8614;48.522;9.206;2023-04-06T02:28:32;0.40;99.90
16995;DHT22;8614;48.522;9.206;2023-04-06T02:31:00;0.40;99.90
16995;DHT22;8614;48.522;9.206;2023-04-06T02:33:27;0.40;99.90
16995;DHT22;8614;48.522;9.206;2023-04-06T02:35:55;0.40;99.90
16995;DHT22;8614;48.522;9.206;2023-04-06T02:38:22;0.40;99.90
16995;DHT22;8614;48.522;9.206;2023-04-06T02:40:51;0.30;99.90
16995;DHT22;8614;48.522;9.206;2023-04-06T02:43:21;0.30;99.90
16995;DHT22;8614;48.522;9.206;2023-04-06T02:45:53;0.40;99.90
16995;DHT22;8614;48.522;9.206;2023-04-06T02:48:21;0.30;99.90
16995;DHT22;8614;48.522;9.206;2023-04-06T02:50:48;0.30;99.90
16995;DHT22;8614;48.522;9.206;2023-04-06T02:53:16;0.20;99.90
16995;DHT22;8614;48.522;9.206;2023-04-06T02:55:43;0.20;99.90
16995;DHT22;8614;48.522;9.206;2023-04-06T02:58:10;0.20;99.90
16995;DHT22;8614;48.522;9.206;2023-04-06T03:00:44;0.20;99.90
16995;DHT22;8614;48.522;9.206;2023-04-06T03:03:11;0.20;99.90
16995;DHT22;8614;48.522;9.206;2023-04-06T03:05:38;0.20;99.90
16995;DHT22;8614;48.522;9.206;2023-04-06T03:08:05;0.20;99.90
16995;DHT22;8614;48.522;9.206;2023-04-06T03:10:43;0.20;99.90
16995;DHT22;8614;48.522;9.206;2023-04-06T03:13:10;0.10;99.90
16995;DHT22;8614;48.522;9.206;2023-04-06T03:15:50;0.10;99.90
16995;DHT22;8614;48.522;9.206;2023-04-06T03:18:21;0.10;99.90
16995;DHT22;8614;48.522;9.206;2023-04-06T03:20:49;0.00;99.90
16995;DHT22;8614;48.522;9.206;2023-04-06T03:23:18;0.00;99.90
16995;DHT22;8614;48.522;9.206;2023-04-06T03:25:48;0.00;99.90
16995;DHT22;8614;48.522;9.206;2023-04-06T03:28:18;-0.10;99.90
16995;DHT22;8614;48.522;9.206;2023-04-06T03:30:52;-0.10;99.90
16995;DHT22;8614;48.522;9.206;2023-04-06T03:33:35;0.00;99.90
16995;DHT22;8614;48.522;9.206;2023-04-06T03:36:01;0.00;99.90
16995;DHT22;8614;48.522;9.206;2023-04-06T03:38:31;0.00;99.90
16995;DHT22;8614;48.522;9.206;2023-04-06T03:40:59;0.00;99.90
16995;DHT22;8614;48.522;9.206;2023-04-06T03:43:27;-0.10;99.90
16995;DHT22;8614;48.522;9.206;2023-04-06T03:45:54;-0.10;99.90
16995;DHT22;8614;48.522;9.206;2023-04-06T03:48:21;-0.10;99.90
16995;DHT22;8614;48.522;9.206;2023-04-06T03:50:47;-0.10;99.90
16995;DHT22;8614;48.522;9.206;2023-04-06T03:53:14;-0.10;99.90
16995;DHT22;8614;48.522;9.206;2023-04-06T03:55:41;-0.10;99.90
16995;DHT22;8614;48.522;9.206;2023-04-06T03:58:09;-0.10;99.90
16995;DHT22;8614;48.522;9.206;2023-04-06T04:00:37;0.00;99.90
16995;DHT22;8614;48.522;9.206;2023-04-06T04:03:04;-0.10;99.90
16995;DHT22;8614;48.522;9.206;2023-04-06T04:05:30;-0.20;99.90
16995;DHT22;8614;48.522;9.206;2023-04-06T04:07:57;-0.20;99.90
16995;DHT22;8614;48.522;9.206;2023-04-06T04:10:26;-0.20;99.90
16995;DHT22;8614;48.522;9.206;2023-04-06T04:12:53;-0.10;99.90
16995;DHT22;8614;48.522;9.206;2023-04-06T04:15:21;-0.10;99.90
16995;DHT22;8614;48.522;9.206;2023-04-06T04:17:48;-0.10;99.90
16995;DHT22;8614;48.522;9.206;2023-04-06T04:20:16;-0.20;99.90
16995;DHT22;8614;48.522;9.206;2023-04-06T04:22:43;-0.10;99.90
16995;DHT22;8614;48.522;9.206;2023-04-06T04:25:10;-0.20;99.90
16995;DHT22;8614;48.522;9.206;2023-04-06T04:27:43;-0.20;99.90
16995;DHT22;8614;48.522;9.206;2023-04-06T04:30:10;-0.20;99.90
16995;DHT22;8614;48.522;9.206;2023-04-06T04:32:38;-0.30;99.90
16995;DHT22;8614;48.522;9.206;2023-04-06T04:35:08;-0.30;99.90
16995;DHT22;8614;48.522;9.206;2023-04-06T04:37:39;-0.30;99.90
16995;DHT22;8614;48.522;9.206;2023-04-06T04:40:08;-0.30;99.90
16995;DHT22;8614;48.522;9.206;2023-04-06T04:42:45;-0.20;99.90
16995;DHT22;8614;48.522;9.206;2023-04-06T04:45:19;-0.30;99.90
16995;DHT22;8614;48.522;9.206;2023-04-06T04:47:47;-0.20;99.90
16995;DHT22;8614;48.522;9.206;2023-04-06T04:50:16;-0.30;99.90
16995;DHT22;8614;48.522;9.206;2023-04-06T04:52:45;-0.30;99.90
16995;DHT22;8614;48.522;9.206;2023-04-06T04:55:19;-0.30;99.90
16995;DHT22;8614;48.522;9.206;2023-04-06T04:57:50;-0.30;99.90
16995;DHT22;8614;48.522;9.206;2023-04-06T05:00:21;-0.20;99.90
16995;DHT22;8614;48.522;9.206;2023-04-06T05:02:50;-0.30;99.90
16995;DHT22;8614;48.522;9.206;2023-04-06T05:05:20;-0.20;99.90
16995;DHT22;8614;48.522;9.206;2023-04-06T05:07:49;-0.30;99.90
16995;DHT22;8614;48.522;9.206;2023-04-06T05:10:26;-0.20;99.90
16995;DHT22;8614;48.522;9.206;2023-04-06T05:12:57;-0.20;99.90
16995;DHT22;8614;48.522;9.206;2023-04-06T05:15:25;-0.20;99.90
16995;DHT22;8614;48.522;9.206;2023-04-06T05:17:58;-0.10;99.90
16995;DHT22;8614;48.522;9.206;2023-04-06T05:20:31;-0.10;99.90
16995;DHT22;8614;48.522;9.206;2023-04-06T05:22:58;0.00;99.90
16995;DHT22;8614;48.522;9.206;2023-04-06T05:25:25;0.10;99.90
16995;DHT22;8614;48.522;9.206;2023-04-06T05:27:56;0.20;99.90
16995;DHT22;8614;48.522;9.206;2023-04-06T05:30:32;0.30;99.90
16995;DHT22;8614;48.522;9.206;2023-04-06T05:33:02;0.30;99.90
16995;DHT22;8614;48.522;9.206;2023-04-06T05:35:40;0.40;99.90
16995;DHT22;8614;48.522;9.206;2023-04-06T05:38:11;0.60;99.90
16995;DHT22;8614;48.522;9.206;2023-04-06T05:40:38;0.80;99.90
16995;DHT22;8614;48.522;9.206;2023-04-06T05:43:09;1.20;99.90
16995;DHT22;8614;48.522;9.206;2023-04-06T05:45:40;1.60;99.90
16995;DHT22;8614;48.522;9.206;2023-04-06T05:48:08;2.00;99.90
16995;DHT22;8614;48.522;9.206;2023-04-06T05:50:34;2.40;99.90
16995;DHT22;8614;48.522;9.206;2023-04-06T05:53:02;2.70;99.90
16995;DHT22;8614;48.522;9.206;2023-04-06T05:55:35;2.90;99.90
16995;DHT22;8614;48.522;9.206;2023-04-06T05:58:16;3.10;99.90
16995;DHT22;8614;48.522;9.206;2023-04-06T06:00:43;3.30;99.90
16995;DHT22;8614;48.522;9.206;2023-04-06T06:03:14;3.60;99.90
16995;DHT22;8614;48.522;9.206;2023-04-06T06:05:46;3.80;99.90
16995;DHT22;8614;48.522;9.206;2023-04-06T06:08:19;4.00;99.90
16995;DHT22;8614;48.522;9.206;2023-04-06T06:10:47;4.00;99.90
16995;DHT22;8614;48.522;9.206;2023-04-06T06:13:16;4.20;99.90
16995;DHT22;8614;48.522;9.206;2023-04-06T06:15:43;4.20;99.90
16995;DHT22;8614;48.522;9.206;2023-04-06T06:18:10;4.40;99.90
16995;DHT22;8614;48.522;9.206;2023-04-06T06:20:38;4.40;99.90
16995;DHT22;8614;48.522;9.206;2023-04-06T06:23:05;4.50;99.90
16995;DHT22;8614;48.522;9.206;2023-04-06T06:25:32;4.70;99.90
16995;DHT22;8614;48.522;9.206;2023-04-06T06:27:59;4.70;99.90
16995;DHT22;8614;48.522;9.206;2023-04-06T06:30:29;4.80;99.90
16995;DHT22;8614;48.522;9.206;2023-04-06T06:32:56;4.80;99.90
16995;DHT22;8614;48.522;9.206;2023-04-06T06:35:23;4.90;99.90
16995;DHT22;8614;48.522;9.206;2023-04-06T06:37:51;5.00;99.90
16995;DHT22;8614;48.522;9.206;2023-04-06T06:40:22;5.10;99.90
16995;DHT22;8614;48.522;9.206;2023-04-06T06:42:50;5.40;99.90
16995;DHT22;8614;48.522;9.206;2023-04-06T06:45:30;5.50;99.90
16995;DHT22;8614;48.522;9.206;2023-04-06T06:47:57;5.70;99.90
16995;DHT22;8614;48.522;9.206;2023-04-06T06:50:23;5.90;99.90
16995;DHT22;8614;48.522;9.206;2023-04-06T06:52:52;6.10;99.90
16995;DHT22;8614;48.522;9.206;2023-04-06T06:55:19;6.30;99.90
16995;DHT22;8614;48.522;9.206;2023-04-06T06:57:46;6.30;99.90
16995;DHT22;8614;48.522;9.206;2023-04-06T07:00:14;6.50;99.90
16995;DHT22;8614;48.522;9.206;2023-04-06T07:02:42;6.50;99.90
16995;DHT22;8614;48.522;9.206;2023-04-06T07:05:09;6.70;99.90
16995;DHT22;8614;48.522;9.206;2023-04-06T07:07:36;6.80;99.90
16995;DHT22;8614;48.522;9.206;2023-04-06T07:10:05;6.90;99.90
16995;DHT22;8614;48.522;9.206;2023-04-06T07:12:32;7.00;99.90
16995;DHT22;8614;48.522;9.206;2023-04-06T07:14:59;7.10;99.90
16995;DHT22;8614;48.522;9.206;2023-04-06T07:17:25;7.20;99.90
16995;DHT22;8614;48.522;9.206;2023-04-06T07:19:53;7.50;99.90
16995;DHT22;8614;48.522;9.206;2023-04-06T07:22:19;7.80;99.90
16995;DHT22;8614;48.522;9.206;2023-04-06T07:24:46;8.00;99.90
16995;DHT22;8614;48.522;9.206;2023-04-06T07:27:14;8.40;99.90
16995;DHT22;8614;48.522;9.206;2023-04-06T07:29:42;8.90;99.90
16995;DHT22;8614;48.522;9.206;2023-04-06T07:32:10;9.20;99.90
16995;DHT22;8614;48.522;9.206;2023-04-06T07:34:37;9.50;99.90
16995;DHT22;8614;48.522;9.206;2023-04-06T07:37:04;9.70;99.90
16995;DHT22;8614;48.522;9.206;2023-04-06T07:39:32;10.10;99.90
16995;DHT22;8614;48.522;9.206;2023-04-06T07:41:59;10.40;99.90
16995;DHT22;8614;48.522;9.206;2023-04-06T07:44:27;10.80;99.90
16995;DHT22;8614;48.522;9.206;2023-04-06T07:46:54;11.00;99.90
16995;DHT22;8614;48.522;9.206;2023-04-06T07:49:22;11.20;99.90
16995;DHT22;8614;48.522;9.206;2023-04-06T07:51:49;11.50;99.90
16995;DHT22;8614;48.522;9.206;2023-04-06T07:54:16;11.70;99.90
16995;DHT22;8614;48.522;9.206;2023-04-06T07:56:44;11.90;99.90
16995;DHT22;8614;48.522;9.206;2023-04-06T07:59:10;12.10;99.90
16995;DHT22;8614;48.522;9.206;2023-04-06T08:01:40;12.20;99.90
16995;DHT22;8614;48.522;9.206;2023-04-06T08:04:07;12.20;99.90
16995;DHT22;8614;48.522;9.206;2023-04-06T08:06:34;12.20;99.90
16995;DHT22;8614;48.522;9.206;2023-04-06T08:09:02;12.20;99.90
16995;DHT22;8614;48.522;9.206;2023-04-06T08:11:28;12.30;99.90
16995;DHT22;8614;48.522;9.206;2023-04-06T08:13:56;12.50;99.90
16995;DHT22;8614;48.522;9.206;2023-04-06T08:16:23;12.70;99.90
16995;DHT22;8614;48.522;9.206;2023-04-06T08:18:51;12.70;99.90
16995;DHT22;8614;48.522;9.206;2023-04-06T08:21:18;12.90;99.90
16995;DHT22;8614;48.522;9.206;2023-04-06T08:23:45;13.00;99.90
16995;DHT22;8614;48.522;9.206;2023-04-06T08:26:12;13.10;99.90
16995;DHT22;8614;48.522;9.206;2023-04-06T08:28:38;12.60;99.90
16995;DHT22;8614;48.522;9.206;2023-04-06T08:31:06;12.90;99.90
16995;DHT22;8614;48.522;9.206;2023-04-06T08:33:33;13.00;99.90
16995;DHT22;8614;48.522;9.206;2023-04-06T08:36:09;13.10;99.90
16995;DHT22;8614;48.522;9.206;2023-04-06T08:38:36;13.50;99.90
16995;DHT22;8614;48.522;9.206;2023-04-06T08:41:07;13.40;99.90
16995;DHT22;8614;48.522;9.206;2023-04-06T08:43:38;13.50;99.90
16995;DHT22;8614;48.522;9.206;2023-04-06T08:46:08;13.60;99.90
16995;DHT22;8614;48.522;9.206;2023-04-06T08:48:36;13.40;99.90
16995;DHT22;8614;48.522;9.206;2023-04-06T08:51:04;13.70;99.90
16995;DHT22;8614;48.522;9.206;2023-04-06T08:53:32;14.00;99.90
16995;DHT22;8614;48.522;9.206;2023-04-06T08:55:59;14.20;97.80
16995;DHT22;8614;48.522;9.206;2023-04-06T08:58:28;14.60;96.10
16995;DHT22;8614;48.522;9.206;2023-04-06T09:00:55;14.70;96.50
16995;DHT22;8614;48.522;9.206;2023-04-06T09:03:22;14.70;95.80
16995;DHT22;8614;48.522;9.206;2023-04-06T09:05:50;14.90;95.30
16995;DHT22;8614;48.522;9.206;2023-04-06T09:08:17;15.10;95.40
16995;DHT22;8614;48.522;9.206;2023-04-06T09:10:46;14.90;95.20
16995;DHT22;8614;48.522;9.206;2023-04-06T09:13:12;15.40;94.50
16995;DHT22;8614;48.522;9.206;2023-04-06T09:15:39;15.50;94.50
16995;DHT22;8614;48.522;9.206;2023-04-06T09:18:06;15.10;94.30
16995;DHT22;8614;48.522;9.206;2023-04-06T09:20:33;15.30;94.00
16995;DHT22;8614;48.522;9.206;2023-04-06T09:23:00;15.40;93.80
16995;DHT22;8614;48.522;9.206;2023-04-06T09:25:27;15.40;93.70
16995;DHT22;8614;48.522;9.206;2023-04-06T09:28:00;15.30;92.80
16995;DHT22;8614;48.522;9.206;2023-04-06T09:30:27;15.00;93.50
16995;DHT22;8614;48.522;9.206;2023-04-06T09:32:56;15.20;93.70
16995;DHT22;8614;48.522;9.206;2023-04-06T09:35:23;15.50;93.40
16995;DHT22;8614;48.522;9.206;2023-04-06T09:37:52;15.10;92.90
16995;DHT22;8614;48.522;9.206;2023-04-06T09:40:19;15.30;92.70
16995;DHT22;8614;48.522;9.206;2023-04-06T09:42:48;15.30;91.00
16995;DHT22;8614;48.522;9.206;2023-04-06T09:45:19;15.10;91.10
16995;DHT22;8614;48.522;9.206;2023-04-06T09:47:46;14.80;92.50
16995;DHT22;8614;48.522;9.206;2023-04-06T09:50:14;15.10;93.60
16995;DHT22;8614;48.522;9.206;2023-04-06T09:52:46;15.00;93.50
16995;DHT22;8614;48.522;9.206;2023-04-06T09:55:17;15.30;93.10
16995;DHT22;8614;48.522;9.206;2023-04-06T09:57:52;15.60;92.60
16995;DHT22;8614;48.522;9.206;2023-04-06T10:00:25;15.80;90.00
16995;DHT22;8614;48.522;9.206;2023-04-06T10:02:58;15.90;90.80
16995;DHT22;8614;48.522;9.206;2023-04-06T10:05:32;15.90;89.80
16995;DHT22;8614;48.522;9.206;2023-04-06T10:08:03;15.50;89.50
16995;DHT22;8614;48.522;9.206;2023-04-06T10:10:32;15.40;90.80
16995;DHT22;8614;48.522;9.206;2023-04-06T10:12:58;15.20;90.00
16995;DHT22;8614;48.522;9.206;2023-04-06T10:15:27;15.20;91.30
16995;DHT22;8614;48.522;9.206;2023-04-06T10:17:54;15.40;90.50
16995;DHT22;8614;48.522;9.206;2023-04-06T10:20:25;15.20;90.40
16995;DHT22;8614;48.522;9.206;2023-04-06T10:22:59;15.10;90.80
16995;DHT22;8614;48.522;9.206;2023-04-06T10:25:28;15.00;90.70
16995;DHT22;8614;48.522;9.206;2023-04-06T10:28:04;15.00;90.70
16995;DHT22;8614;48.522;9.206;2023-04-06T10:30:33;14.90;90.20
16995;DHT22;8614;48.522;9.206;2023-04-06T10:33:01;14.90;90.40
16995;DHT22;8614;48.522;9.206;2023-04-06T10:35:38;14.80;89.80
16995;DHT22;8614;48.522;9.206;2023-04-06T10:38:05;14.70;89.60
16995;DHT22;8614;48.522;9.206;2023-04-06T10:40:35;14.70;90.30
16995;DHT22;8614;48.522;9.206;2023-04-06T10:43:09;14.70;90.10
16995;DHT22;8614;48.522;9.206;2023-04-06T10:45:39;14.70;89.20
16995;DHT22;8614;48.522;9.206;2023-04-06T10:48:13;14.60;89.40
16995;DHT22;8614;48.522;9.206;2023-04-06T10:50:41;14.60;88.80
16995;DHT22;8614;48.522;9.206;2023-04-06T10:53:08;14.30;87.10
16995;DHT22;8614;48.522;9.206;2023-04-06T10:55:39;14.10;89.10
16995;DHT22;8614;48.522;9.206;2023-04-06T10:58:06;14.10;90.00
16995;DHT22;8614;48.522;9.206;2023-04-06T11:00:33;14.20;90.40
16995;DHT22;8614;48.522;9.206;2023-04-06T11:03:02;14.20;89.20
16995;DHT22;8614;48.522;9.206;2023-04-06T11:05:29;14.20;89.70
16995;DHT22;8614;48.522;9.206;2023-04-06T11:07:56;14.20;88.60
16995;DHT22;8614;48.522;9.206;2023-04-06T11:10:23;14.00;89.60
16995;DHT22;8614;48.522;9.206;2023-04-06T11:12:54;14.00;88.20
16995;DHT22;8614;48.522;9.206;2023-04-06T11:15:21;14.10;86.90
16995;DHT22;8614;48.522;9.206;2023-04-06T11:17:48;14.10;87.90
16995;DHT22;8614;48.522;9.206;2023-04-06T11:20:16;14.00;87.10
16995;DHT22;8614;48.522;9.206;2023-04-06T11:22:49;13.90;87.30
16995;DHT22;8614;48.522;9.206;2023-04-06T11:25:16;13.60;86.30
16995;DHT22;8614;48.522;9.206;2023-04-06T11:27:43;13.50;88.40
16995;DHT22;8614;48.522;9.206;2023-04-06T11:30:11;13.60;88.60
16995;DHT22;8614;48.522;9.206;2023-04-06T11:32:40;13.50;87.60
16995;DHT22;8614;48.522;9.206;2023-04-06T11:35:10;13.50;85.80
16995;DHT22;8614;48.522;9.206;2023-04-06T11:37:38;13.40;88.30
16995;DHT22;8614;48.522;9.206;2023-04-06T11:40:08;13.30;85.90
16995;DHT22;8614;48.522;9.206;2023-04-06T11:42:35;13.20;86.50
16995;DHT22;8614;48.522;9.206;2023-04-06T11:45:02;13.50;89.00
16995;DHT22;8614;48.522;9.206;2023-04-06T11:47:32;13.70;88.00
16995;DHT22;8614;48.522;9.206;2023-04-06T11:50:05;13.80;90.10
16995;DHT22;8614;48.522;9.206;2023-04-06T11:52:32;14.00;90.40
16995;DHT22;8614;48.522;9.206;2023-04-06T11:55:11;14.10;87.60
16995;DHT22;8614;48.522;9.206;2023-04-06T11:57:38;14.10;86.60
16995;DHT22;8614;48.522;9.206;2023-04-06T12:00:06;14.00;81.50
16995;DHT22;8614;48.522;9.206;2023-04-06T12:02:33;13.80;83.40
16995;DHT22;8614;48.522;9.206;2023-04-06T12:05:00;13.60;82.60
16995;DHT22;8614;48.522;9.206;2023-04-06T12:07:28;13.60;85.50
16995;DHT22;8614;48.522;9.206;2023-04-06T12:09:55;13.80;86.80
16995;DHT22;8614;48.522;9.206;2023-04-06T12:12:23;14.00;87.30
16995;DHT22;8614;48.522;9.206;2023-04-06T12:14:49;14.10;86.80
16995;DHT22;8614;48.522;9.206;2023-04-06T12:17:17;14.20;85.50
16995;DHT22;8614;48.522;9.206;2023-04-06T12:19:44;14.20;85.60
16995;DHT22;8614;48.522;9.206;2023-04-06T12:22:11;14.20;84.50
16995;DHT22;8614;48.522;9.206;2023-04-06T12:24:37;14.30;83.60
16995;DHT22;8614;48.522;9.206;2023-04-06T12:27:04;14.30;84.20
16995;DHT22;8614;48.522;9.206;2023-04-06T12:29:33;14.30;83.90
16995;DHT22;8614;48.522;9.206;2023-04-06T12:32:00;14.30;83.80
16995;DHT22;8614;48.522;9.206;2023-04-06T12:34:27;14.30;83.70
16995;DHT22;8614;48.522;9.206;2023-04-06T12:36:54;14.40;81.90
16995;DHT22;8614;48.522;9.206;2023-04-06T12:39:21;14.30;82.70
16995;DHT22;8614;48.522;9.206;2023-04-06T12:41:48;14.10;82.00
16995;DHT22;8614;48.522;9.206;2023-04-06T12:44:14;14.00;83.80
16995;DHT22;8614;48.522;9.206;2023-04-06T12:46:43;14.00;83.70
16995;DHT22;8614;48.522;9.206;2023-04-06T12:49:10;14.10;83.50
16995;DHT22;8614;48.522;9.206;2023-04-06T12:51:37;14.00;84.70
16995;DHT22;8614;48.522;9.206;2023-04-06T12:54:04;14.10;85.90
16995;DHT22;8614;48.522;9.206;2023-04-06T12:56:31;14.10;83.60
16995;DHT22;8614;48.522;9.206;2023-04-06T12:58:58;14.00;83.10
16995;DHT22;8614;48.522;9.206;2023-04-06T13:01:25;13.90;81.90
16995;DHT22;8614;48.522;9.206;2023-04-06T13:03:55;13.80;82.80
16995;DHT22;8614;48.522;9.206;2023-04-06T13:06:22;13.70;84.10
16995;DHT22;8614;48.522;9.206;2023-04-06T13:08:52;13.70;83.20
16995;DHT22;8614;48.522;9.206;2023-04-06T13:11:20;13.70;82.20
16995;DHT22;8614;48.522;9.206;2023-04-06T13:13:49;13.60;82.90
16995;DHT22;8614;48.522;9.206;2023-04-06T13:16:16;13.80;82.90
16995;DHT22;8614;48.522;9.206;2023-04-06T13:18:42;13.80;83.70
16995;DHT22;8614;48.522;9.206;2023-04-06T13:21:13;13.90;82.20
16995;DHT22;8614;48.522;9.206;2023-04-06T13:23:41;14.00;83.50
16995;DHT22;8614;48.522;9.206;2023-04-06T13:26:08;14.10;82.90
16995;DHT22;8614;48.522;9.206;2023-04-06T13:28:36;14.10;82.70
16995;DHT22;8614;48.522;9.206;2023-04-06T13:31:04;13.90;82.10
16995;DHT22;8614;48.522;9.206;2023-04-06T13:33:31;13.70;81.60
16995;DHT22;8614;48.522;9.206;2023-04-06T13:35:58;13.70;81.50
16995;DHT22;8614;48.522;9.206;2023-04-06T13:38:27;13.70;80.90
16995;DHT22;8614;48.522;9.206;2023-04-06T13:40:54;13.80;80.60
16995;DHT22;8614;48.522;9.206;2023-04-06T13:43:21;13.80;78.70
16995;DHT22;8614;48.522;9.206;2023-04-06T13:45:52;13.90;79.00
16995;DHT22;8614;48.522;9.206;2023-04-06T13:48:20;14.10;79.80
16995;DHT22;8614;48.522;9.206;2023-04-06T13:50:47;14.30;78.50
16995;DHT22;8614;48.522;9.206;2023-04-06T13:53:14;14.30;76.80
16995;DHT22;8614;48.522;9.206;2023-04-06T13:55:42;14.50;77.90
16995;DHT22;8614;48.522;9.206;2023-04-06T13:58:09;14.80;77.40
16995;DHT22;8614;48.522;9.206;2023-04-06T14:00:36;14.80;76.50
16995;DHT22;8614;48.522;9.206;2023-04-06T14:03:03;14.90;76.40
16995;DHT22;8614;48.522;9.206;2023-04-06T14:05:31;15.00;76.70
16995;DHT22;8614;48.522;9.206;2023-04-06T14:07:58;15.00;76.50
16995;DHT22;8614;48.522;9.206;2023-04-06T14:10:25;15.00;75.30
16995;DHT22;8614;48.522;9.206;2023-04-06T14:12:54;15.20;76.40
16995;DHT22;8614;48.522;9.206;2023-04-06T14:15:22;15.20;75.40
16995;DHT22;8614;48.522;9.206;2023-04-06T14:17:49;15.40;73.50
16995;DHT22;8614;48.522;9.206;2023-04-06T14:20:16;15.40;71.50
16995;DHT22;8614;48.522;9.206;2023-04-06T14:22:43;15.50;69.90
16995;DHT22;8614;48.522;9.206;2023-04-06T14:25:10;15.60;72.80
16995;DHT22;8614;48.522;9.206;2023-04-06T14:27:38;15.60;72.90
16995;DHT22;8614;48.522;9.206;2023-04-06T14:30:07;15.70;74.00
16995;DHT22;8614;48.522;9.206;2023-04-06T14:32:34;15.70;75.60
16995;DHT22;8614;48.522;9.206;2023-04-06T14:35:02;15.60;76.90
16995;DHT22;8614;48.522;9.206;2023-04-06T14:37:29;15.60;76.50
16995;DHT22;8614;48.522;9.206;2023-04-06T14:39:55;15.50;77.40
16995;DHT22;8614;48.522;9.206;2023-04-06T14:42:22;15.50;77.80
16995;DHT22;8614;48.522;9.206;2023-04-06T14:44:49;15.50;77.50
16995;DHT22;8614;48.522;9.206;2023-04-06T14:47:17;15.50;76.80
16995;DHT22;8614;48.522;9.206;2023-04-06T14:49:46;15.50;77.70
16995;DHT22;8614;48.522;9.206;2023-04-06T14:52:12;15.50;79.40
16995;DHT22;8614;48.522;9.206;2023-04-06T14:54:39;15.50;79.00
16995;DHT22;8614;48.522;9.206;2023-04-06T14:57:06;15.60;80.30
16995;DHT22;8614;48.522;9.206;2023-04-06T14:59:33;15.50;80.20
16995;DHT22;8614;48.522;9.206;2023-04-06T15:02:01;15.40;81.00
16995;DHT22;8614;48.522;9.206;2023-04-06T15:04:29;15.20;81.50
16995;DHT22;8614;48.522;9.206;2023-04-06T15:06:56;15.10;81.00
16995;DHT22;8614;48.522;9.206;2023-04-06T15:09:23;15.00;81.50
16995;DHT22;8614;48.522;9.206;2023-04-06T15:11:50;15.00;81.80
16995;DHT22;8614;48.522;9.206;2023-04-06T15:14:17;14.90;80.90
16995;DHT22;8614;48.522;9.206;2023-04-06T15:16:44;14.80;80.50
16995;DHT22;8614;48.522;9.206;2023-04-06T15:19:10;14.80;80.70
16995;DHT22;8614;48.522;9.206;2023-04-06T15:21:38;14.60;80.70
16995;DHT22;8614;48.522;9.206;2023-04-06T15:24:06;14.60;80.50
16995;DHT22;8614;48.522;9.206;2023-04-06T15:26:35;14.60;80.40
16995;DHT22;8614;48.522;9.206;2023-04-06T15:29:02;14.60;78.90
16995;DHT22;8614;48.522;9.206;2023-04-06T15:31:29;14.60;80.40
16995;DHT22;8614;48.522;9.206;2023-04-06T15:33:55;14.60;80.90
16995;DHT22;8614;48.522;9.206;2023-04-06T15:36:24;14.50;80.00
16995;DHT22;8614;48.522;9.206;2023-04-06T15:38:53;14.50;80.10
16995;DHT22;8614;48.522;9.206;2023-04-06T15:41:20;14.40;80.50
16995;DHT22;8614;48.522;9.206;2023-04-06T15:43:47;14.40;80.80
16995;DHT22;8614;48.522;9.206;2023-04-06T15:46:14;14.40;81.40
16995;DHT22;8614;48.522;9.206;2023-04-06T15:48:41;14.40;80.50
16995;DHT22;8614;48.522;9.206;2023-04-06T15:51:08;14.40;82.40
16995;DHT22;8614;48.522;9.206;2023-04-06T15:53:35;14.30;81.60
16995;DHT22;8614;48.522;9.206;2023-04-06T15:56:04;14.30;83.50
16995;DHT22;8614;48.522;9.206;2023-04-06T15:58:33;14.20;81.00
16995;DHT22;8614;48.522;9.206;2023-04-06T16:01:00;14.20;81.40
16995;DHT22;8614;48.522;9.206;2023-04-06T16:03:26;14.20;83.40
16995;DHT22;8614;48.522;9.206;2023-04-06T16:05:53;14.10;84.20
16995;DHT22;8614;48.522;9.206;2023-04-06T16:08:20;14.10;84.20
16995;DHT22;8614;48.522;9.206;2023-04-06T16:10:47;14.10;83.50
16995;DHT22;8614;48.522;9.206;2023-04-06T16:13:15;14.10;85.10
16995;DHT22;8614;48.522;9.206;2023-04-06T16:15:42;14.00;86.30
16995;DHT22;8614;48.522;9.206;2023-04-06T16:18:09;13.90;84.20
16995;DHT22;8614;48.522;9.206;2023-04-06T16:20:36;13.90;87.20
16995;DHT22;8614;48.522;9.206;2023-04-06T16:23:02;13.80;85.50
16995;DHT22;8614;48.522;9.206;2023-04-06T16:25:30;13.70;82.60
16995;DHT22;8614;48.522;9.206;2023-04-06T16:27:57;13.60;83.20
16995;DHT22;8614;48.522;9.206;2023-04-06T16:30:25;13.50;83.70
16995;DHT22;8614;48.522;9.206;2023-04-06T16:32:55;13.50;84.40
16995;DHT22;8614;48.522;9.206;2023-04-06T16:35:22;13.40;85.10
16995;DHT22;8614;48.522;9.206;2023-04-06T16:37:50;13.40;85.70
16995;DHT22;8614;48.522;9.206;2023-04-06T16:40:17;13.30;86.10
16995;DHT22;8614;48.522;9.206;2023-04-06T16:42:44;13.30;86.40
16995;DHT22;8614;48.522;9.206;2023-04-06T16:45:12;13.30;86.90
16995;DHT22;8614;48.522;9.206;2023-04-06T16:47:41;13.20;87.70
16995;DHT22;8614;48.522;9.206;2023-04-06T16:50:09;13.10;87.40
16995;DHT22;8614;48.522;9.206;2023-04-06T16:52:36;13.00;87.60
16995;DHT22;8614;48.522;9.206;2023-04-06T16:55:03;13.00;88.00
16995;DHT22;8614;48.522;9.206;2023-04-06T16:57:30;12.90;86.90
16995;DHT22;8614;48.522;9.206;2023-04-06T16:59:58;12.80;87.20
16995;DHT22;8614;48.522;9.206;2023-04-06T17:02:25;12.70;87.70
16995;DHT22;8614;48.522;9.206;2023-04-06T17:04:53;12.60;87.60
16995;DHT22;8614;48.522;9.206;2023-04-06T17:07:20;12.60;88.30
16995;DHT22;8614;48.522;9.206;2023-04-06T17:09:51;12.50;88.90
16995;DHT22;8614;48.522;9.206;2023-04-06T17:12:17;12.40;88.80
16995;DHT22;8614;48.522;9.206;2023-04-06T17:14:44;12.40;89.00
16995;DHT22;8614;48.522;9.206;2023-04-06T17:17:11;12.30;89.30
16995;DHT22;8614;48.522;9.206;2023-04-06T17:19:38;12.20;89.30
16995;DHT22;8614;48.522;9.206;2023-04-06T17:22:06;12.10;89.90
16995;DHT22;8614;48.522;9.206;2023-04-06T17:24:33;12.10;90.40
16995;DHT22;8614;48.522;9.206;2023-04-06T17:26:59;12.00;90.60
16995;DHT22;8614;48.522;9.206;2023-04-06T17:29:27;11.90;91.00
16995;DHT22;8614;48.522;9.206;2023-04-06T17:31:54;11.80;91.80
16995;DHT22;8614;48.522;9.206;2023-04-06T17:34:20;11.80;91.90
16995;DHT22;8614;48.522;9.206;2023-04-06T17:36:47;11.70;93.10
16995;DHT22;8614;48.522;9.206;2023-04-06T17:39:15;11.60;92.90
16995;DHT22;8614;48.522;9.206;2023-04-06T17:41:43;11.60;93.10
16995;DHT22;8614;48.522;9.206;2023-04-06T17:44:09;11.50;92.40
16995;DHT22;8614;48.522;9.206;2023-04-06T17:46:36;11.40;91.90
16995;DHT22;8614;48.522;9.206;2023-04-06T17:49:03;11.40;92.10
16995;DHT22;8614;48.522;9.206;2023-04-06T17:51:32;11.30;92.30
16995;DHT22;8614;48.522;9.206;2023-04-06T17:53:59;11.30;92.90
16995;DHT22;8614;48.522;9.206;2023-04-06T17:56:27;11.20;94.10